sensor_id;sensor_type;location;lat;lon;timestamp;P1;durP1;ratioP1;P2;durP2;ratioP2
47960;SDS011;33721;48.852;9.936;2023-11-19T00:02:18;13.52;;;5.75;;
47960;SDS011;33721;48.852;9.936;2023-11-19T00:04:44;14.13;;;5.20;;
47960;SDS011;33721;48.852;9.936;2023-11-19T00:07:10;10.80;;;5.18;;
47960;SDS011;33721;48.852;9.936;2023-11-19T00:09:38;12.68;;;5.47;;
47960;SDS011;33721;48.852;9.936;2023-11-19T00:12:05;10.85;;;5.07;;
47960;SDS011;33721;48.852;9.936;2023-11-19T00:14:31;12.25;;;5.00;;
47960;SDS011;33721;48.852;9.936;2023-11-19T00:16:57;9.18;;;4.97;;
47960;SDS011;33721;48.852;9.936;2023-11-19T00:19:23;7.75;;;4.60;;
47960;SDS011;33721;48.852;9.936;2023-11-19T00:21:48;8.00;;;4.03;;
47960;SDS011;33721;48.852;9.936;2023-11-19T00:24:14;7.88;;;4.00;;
47960;SDS011;33721;48.852;9.936;2023-11-19T00:26:43;8.68;;;4.13;;
47960;SDS011;33721;48.852;9.936;2023-11-19T00:29:09;9.27;;;4.20;;
47960;SDS011;33721;48.852;9.936;2023-11-19T00:31:35;9.60;;;4.35;;
47960;SDS011;33721;48.852;9.936;2023-11-19T00:34:01;10.90;;;3.97;;
47960;SDS011;33721;48.852;9.936;2023-11-19T00:36:27;9.20;;;4.55;;
47960;SDS011;33721;48.852;9.936;2023-11-19T00:38:53;7.80;;;3.90;;
47960;SDS011;33721;48.852;9.936;2023-11-19T00:41:19;9.07;;;4.18;;
47960;SDS011;33721;48.852;9.936;2023-11-19T00:43:45;9.15;;;4.38;;
47960;SDS011;33721;48.852;9.936;2023-11-19T00:46:11;9.45;;;4.90;;
47960;SDS011;33721;48.852;9.936;2023-11-19T00:48:36;9.02;;;4.75;;
47960;SDS011;33721;48.852;9.936;2023-11-19T00:51:02;9.73;;;4.85;;
47960;SDS011;33721;48.852;9.936;2023-11-19T00:53:31;10.02;;;4.97;;
47960;SDS011;33721;48.852;9.936;2023-11-19T00:55:58;9.02;;;4.93;;
47960;SDS011;33721;48.852;9.936;2023-11-19T00:58:24;10.10;;;5.40;;
47960;SDS011;33721;48.852;9.936;2023-11-19T01:00:50;13.13;;;5.10;;
47960;SDS011;33721;48.852;9.936;2023-11-19T01:03:16;8.63;;;4.75;;
47960;SDS011;33721;48.852;9.936;2023-11-19T01:05:41;9.82;;;4.85;;
47960;SDS011;33721;48.852;9.936;2023-11-19T01:08:08;8.13;;;4.70;;
47960;SDS011;33721;48.852;9.936;2023-11-19T01:10:34;10.23;;;4.30;;
47960;SDS011;33721;48.852;9.936;2023-11-19T01:13:02;8.10;;;3.72;;
47960;SDS011;33721;48.852;9.936;2023-11-19T01:15:30;8.45;;;3.75;;
47960;SDS011;33721;48.852;9.936;2023-11-19T01:17:56;8.55;;;4.30;;
47960;SDS011;33721;48.852;9.936;2023-11-19T01:20:22;8.05;;;4.00;;
47960;SDS011;33721;48.852;9.936;2023-11-19T01:22:49;7.93;;;4.00;;
47960;SDS011;33721;48.852;9.936;2023-11-19T01:25:15;8.50;;;4.57;;
47960;SDS011;33721;48.852;9.936;2023-11-19T01:27:40;8.07;;;4.00;;
47960;SDS011;33721;48.852;9.936;2023-11-19T01:30:06;7.55;;;4.13;;
47960;SDS011;33721;48.852;9.936;2023-11-19T01:32:35;7.43;;;4.20;;
47960;SDS011;33721;48.852;9.936;2023-11-19T01:35:01;7.28;;;3.88;;
47960;SDS011;33721;48.852;9.936;2023-11-19T01:37:29;8.43;;;3.92;;
47960;SDS011;33721;48.852;9.936;2023-11-19T01:39:54;6.35;;;3.70;;
47960;SDS011;33721;48.852;9.936;2023-11-19T01:42:20;8.25;;;4.07;;
47960;SDS011;33721;48.852;9.936;2023-11-19T01:44:58;6.85;;;4.25;;
47960;SDS011;33721;48.852;9.936;2023-11-19T01:47:25;7.00;;;3.90;;
47960;SDS011;33721;48.852;9.936;2023-11-19T01:49:53;8.43;;;3.78;;
47960;SDS011;33721;48.852;9.936;2023-11-19T01:52:19;7.75;;;4.00;;
47960;SDS011;33721;48.852;9.936;2023-11-19T01:54:45;7.45;;;3.83;;
47960;SDS011;33721;48.852;9.936;2023-11-19T01:57:12;6.35;;;3.92;;
47960;SDS011;33721;48.852;9.936;2023-11-19T01:59:38;7.57;;;4.22;;
47960;SDS011;33721;48.852;9.936;2023-11-19T02:02:05;8.20;;;4.22;;
47960;SDS011;33721;48.852;9.936;2023-11-19T02:04:31;7.28;;;3.95;;
47960;SDS011;33721;48.852;9.936;2023-11-19T02:06:57;6.82;;;3.75;;
47960;SDS011;33721;48.852;9.936;2023-11-19T02:09:23;6.55;;;3.55;;
47960;SDS011;33721;48.852;9.936;2023-11-19T02:11:49;6.65;;;3.67;;
47960;SDS011;33721;48.852;9.936;2023-11-19T02:14:16;6.88;;;3.50;;
47960;SDS011;33721;48.852;9.936;2023-11-19T02:16:42;5.80;;;3.03;;
47960;SDS011;33721;48.852;9.936;2023-11-19T02:19:08;5.88;;;2.78;;
47960;SDS011;33721;48.852;9.936;2023-11-19T02:21:36;5.28;;;2.75;;
47960;SDS011;33721;48.852;9.936;2023-11-19T02:24:05;5.78;;;2.65;;
47960;SDS011;33721;48.852;9.936;2023-11-19T02:26:36;5.18;;;2.60;;
47960;SDS011;33721;48.852;9.936;2023-11-19T02:29:11;4.50;;;2.25;;
47960;SDS011;33721;48.852;9.936;2023-11-19T02:31:38;4.57;;;2.80;;
47960;SDS011;33721;48.852;9.936;2023-11-19T02:34:03;4.35;;;2.60;;
47960;SDS011;33721;48.852;9.936;2023-11-19T02:36:30;5.05;;;2.58;;
47960;SDS011;33721;48.852;9.936;2023-11-19T02:38:57;5.43;;;2.58;;
47960;SDS011;33721;48.852;9.936;2023-11-19T02:41:23;4.35;;;2.25;;
47960;SDS011;33721;48.852;9.936;2023-11-19T02:43:49;8.15;;;2.25;;
47960;SDS011;33721;48.852;9.936;2023-11-19T02:46:15;4.18;;;2.30;;
47960;SDS011;33721;48.852;9.936;2023-11-19T02:48:42;2.80;;;1.60;;
47960;SDS011;33721;48.852;9.936;2023-11-19T02:51:09;3.28;;;1.80;;
47960;SDS011;33721;48.852;9.936;2023-11-19T02:53:35;4.80;;;2.10;;
47960;SDS011;33721;48.852;9.936;2023-11-19T02:56:02;3.30;;;1.67;;
47960;SDS011;33721;48.852;9.936;2023-11-19T02:58:36;4.00;;;1.77;;
47960;SDS011;33721;48.852;9.936;2023-11-19T03:01:03;3.30;;;1.70;;
47960;SDS011;33721;48.852;9.936;2023-11-19T03:03:37;3.38;;;1.70;;
47960;SDS011;33721;48.852;9.936;2023-11-19T03:06:05;3.60;;;2.10;;
47960;SDS011;33721;48.852;9.936;2023-11-19T03:08:32;4.70;;;2.00;;
47960;SDS011;33721;48.852;9.936;2023-11-19T03:11:00;4.68;;;2.10;;
47960;SDS011;33721;48.852;9.936;2023-11-19T03:13:25;2.97;;;1.73;;
47960;SDS011;33721;48.852;9.936;2023-11-19T03:15:51;3.40;;;1.88;;
47960;SDS011;33721;48.852;9.936;2023-11-19T03:18:18;2.75;;;1.58;;
47960;SDS011;33721;48.852;9.936;2023-11-19T03:20:46;2.53;;;1.50;;
47960;SDS011;33721;48.852;9.936;2023-11-19T03:23:11;4.53;;;2.03;;
47960;SDS011;33721;48.852;9.936;2023-11-19T03:25:37;2.95;;;1.50;;
47960;SDS011;33721;48.852;9.936;2023-11-19T03:28:03;3.15;;;1.70;;
47960;SDS011;33721;48.852;9.936;2023-11-19T03:30:29;3.15;;;1.45;;
47960;SDS011;33721;48.852;9.936;2023-11-19T03:32:56;2.88;;;1.58;;
47960;SDS011;33721;48.852;9.936;2023-11-19T03:35:22;3.17;;;1.80;;
47960;SDS011;33721;48.852;9.936;2023-11-19T03:37:48;2.72;;;1.48;;
47960;SDS011;33721;48.852;9.936;2023-11-19T03:40:14;2.95;;;1.45;;
47960;SDS011;33721;48.852;9.936;2023-11-19T03:42:40;3.20;;;1.58;;
47960;SDS011;33721;48.852;9.936;2023-11-19T03:45:08;3.22;;;1.75;;
47960;SDS011;33721;48.852;9.936;2023-11-19T03:47:34;3.33;;;1.55;;
47960;SDS011;33721;48.852;9.936;2023-11-19T03:50:00;2.80;;;1.83;;
47960;SDS011;33721;48.852;9.936;2023-11-19T03:52:27;4.53;;;1.90;;
47960;SDS011;33721;48.852;9.936;2023-11-19T03:54:54;4.97;;;2.70;;
47960;SDS011;33721;48.852;9.936;2023-11-19T03:57:23;6.47;;;2.80;;
47960;SDS011;33721;48.852;9.936;2023-11-19T03:59:49;4.10;;;2.30;;
47960;SDS011;33721;48.852;9.936;2023-11-19T04:02:15;4.68;;;2.38;;
47960;SDS011;33721;48.852;9.936;2023-11-19T04:04:41;4.63;;;2.03;;
47960;SDS011;33721;48.852;9.936;2023-11-19T04:07:06;5.18;;;2.13;;
47960;SDS011;33721;48.852;9.936;2023-11-19T04:09:32;4.93;;;2.55;;
47960;SDS011;33721;48.852;9.936;2023-11-19T04:11:58;4.65;;;2.58;;
47960;SDS011;33721;48.852;9.936;2023-11-19T04:14:25;5.20;;;3.10;;
47960;SDS011;33721;48.852;9.936;2023-11-19T04:16:51;6.20;;;3.40;;
47960;SDS011;33721;48.852;9.936;2023-11-19T04:19:17;6.25;;;3.05;;
47960;SDS011;33721;48.852;9.936;2023-11-19T04:21:43;5.38;;;3.28;;
47960;SDS011;33721;48.852;9.936;2023-11-19T04:24:09;8.98;;;3.80;;
47960;SDS011;33721;48.852;9.936;2023-11-19T04:26:42;5.73;;;3.00;;
47960;SDS011;33721;48.852;9.936;2023-11-19T04:29:12;4.97;;;3.13;;
47960;SDS011;33721;48.852;9.936;2023-11-19T04:31:38;11.85;;;4.63;;
47960;SDS011;33721;48.852;9.936;2023-11-19T04:34:04;5.95;;;3.05;;
47960;SDS011;33721;48.852;9.936;2023-11-19T04:36:31;5.75;;;2.70;;
47960;SDS011;33721;48.852;9.936;2023-11-19T04:38:58;4.75;;;2.50;;
47960;SDS011;33721;48.852;9.936;2023-11-19T04:41:24;4.60;;;2.67;;
47960;SDS011;33721;48.852;9.936;2023-11-19T04:43:52;7.07;;;2.88;;
47960;SDS011;33721;48.852;9.936;2023-11-19T04:46:18;4.82;;;2.75;;
47960;SDS011;33721;48.852;9.936;2023-11-19T04:48:44;4.57;;;2.72;;
47960;SDS011;33721;48.852;9.936;2023-11-19T04:51:10;9.05;;;2.92;;
47960;SDS011;33721;48.852;9.936;2023-11-19T04:53:35;4.97;;;2.92;;
47960;SDS011;33721;48.852;9.936;2023-11-19T04:56:01;5.35;;;2.90;;
47960;SDS011;33721;48.852;9.936;2023-11-19T04:58:33;5.30;;;2.72;;
47960;SDS011;33721;48.852;9.936;2023-11-19T05:00:59;6.03;;;2.78;;
47960;SDS011;33721;48.852;9.936;2023-11-19T05:03:24;5.15;;;2.63;;
47960;SDS011;33721;48.852;9.936;2023-11-19T05:05:50;5.22;;;2.30;;
47960;SDS011;33721;48.852;9.936;2023-11-19T05:08:15;6.57;;;2.92;;
47960;SDS011;33721;48.852;9.936;2023-11-19T05:10:41;4.05;;;2.30;;
47960;SDS011;33721;48.852;9.936;2023-11-19T05:13:06;6.18;;;3.03;;
47960;SDS011;33721;48.852;9.936;2023-11-19T05:15:32;4.22;;;2.60;;
47960;SDS011;33721;48.852;9.936;2023-11-19T05:17:58;3.63;;;2.20;;
47960;SDS011;33721;48.852;9.936;2023-11-19T05:20:24;4.38;;;2.00;;
47960;SDS011;33721;48.852;9.936;2023-11-19T05:22:49;3.17;;;1.60;;
47960;SDS011;33721;48.852;9.936;2023-11-19T05:25:16;2.60;;;1.50;;
47960;SDS011;33721;48.852;9.936;2023-11-19T05:27:42;2.88;;;1.50;;
47960;SDS011;33721;48.852;9.936;2023-11-19T05:30:08;2.67;;;1.35;;
47960;SDS011;33721;48.852;9.936;2023-11-19T05:32:35;3.22;;;1.48;;
47960;SDS011;33721;48.852;9.936;2023-11-19T05:35:01;2.83;;;1.20;;
47960;SDS011;33721;48.852;9.936;2023-11-19T05:37:27;2.53;;;1.50;;
47960;SDS011;33721;48.852;9.936;2023-11-19T05:39:52;2.40;;;1.40;;
47960;SDS011;33721;48.852;9.936;2023-11-19T05:42:18;2.75;;;1.40;;
47960;SDS011;33721;48.852;9.936;2023-11-19T05:44:44;2.45;;;1.30;;
47960;SDS011;33721;48.852;9.936;2023-11-19T05:47:09;3.15;;;1.27;;
47960;SDS011;33721;48.852;9.936;2023-11-19T05:49:35;2.15;;;1.13;;
47960;SDS011;33721;48.852;9.936;2023-11-19T05:52:00;2.00;;;1.20;;
47960;SDS011;33721;48.852;9.936;2023-11-19T05:54:28;2.35;;;1.27;;
47960;SDS011;33721;48.852;9.936;2023-11-19T05:56:54;1.77;;;1.10;;
47960;SDS011;33721;48.852;9.936;2023-11-19T05:59:20;1.98;;;1.30;;
47960;SDS011;33721;48.852;9.936;2023-11-19T06:01:47;2.17;;;1.00;;
47960;SDS011;33721;48.852;9.936;2023-11-19T06:04:13;2.33;;;1.10;;
47960;SDS011;33721;48.852;9.936;2023-11-19T06:06:39;3.22;;;0.95;;
47960;SDS011;33721;48.852;9.936;2023-11-19T06:09:05;2.55;;;0.85;;
47960;SDS011;33721;48.852;9.936;2023-11-19T06:11:32;2.90;;;0.90;;
47960;SDS011;33721;48.852;9.936;2023-11-19T06:14:01;2.28;;;1.05;;
47960;SDS011;33721;48.852;9.936;2023-11-19T06:16:27;2.10;;;0.95;;
47960;SDS011;33721;48.852;9.936;2023-11-19T06:18:52;2.53;;;1.00;;
47960;SDS011;33721;48.852;9.936;2023-11-19T06:21:18;1.20;;;0.60;;
47960;SDS011;33721;48.852;9.936;2023-11-19T06:23:44;1.23;;;0.70;;
47960;SDS011;33721;48.852;9.936;2023-11-19T06:26:10;4.28;;;0.80;;
47960;SDS011;33721;48.852;9.936;2023-11-19T06:28:35;2.03;;;1.00;;
47960;SDS011;33721;48.852;9.936;2023-11-19T06:31:01;1.83;;;0.60;;
47960;SDS011;33721;48.852;9.936;2023-11-19T06:33:28;2.22;;;0.68;;
47960;SDS011;33721;48.852;9.936;2023-11-19T06:35:53;1.10;;;0.60;;
47960;SDS011;33721;48.852;9.936;2023-11-19T06:38:19;1.65;;;0.80;;
47960;SDS011;33721;48.852;9.936;2023-11-19T06:40:45;1.27;;;0.70;;
47960;SDS011;33721;48.852;9.936;2023-11-19T06:43:11;3.50;;;0.65;;
47960;SDS011;33721;48.852;9.936;2023-11-19T06:45:36;1.00;;;0.50;;
47960;SDS011;33721;48.852;9.936;2023-11-19T06:48:02;1.25;;;0.60;;
47960;SDS011;33721;48.852;9.936;2023-11-19T06:50:29;0.98;;;0.50;;
47960;SDS011;33721;48.852;9.936;2023-11-19T06:52:55;1.00;;;0.50;;
47960;SDS011;33721;48.852;9.936;2023-11-19T06:55:20;1.88;;;0.57;;
47960;SDS011;33721;48.852;9.936;2023-11-19T06:57:46;2.15;;;0.45;;
47960;SDS011;33721;48.852;9.936;2023-11-19T07:00:11;0.90;;;0.57;;
47960;SDS011;33721;48.852;9.936;2023-11-19T07:02:37;1.20;;;0.50;;
47960;SDS011;33721;48.852;9.936;2023-11-19T07:05:04;2.13;;;0.43;;
47960;SDS011;33721;48.852;9.936;2023-11-19T07:07:30;1.45;;;0.50;;
47960;SDS011;33721;48.852;9.936;2023-11-19T07:09:57;1.15;;;0.63;;
47960;SDS011;33721;48.852;9.936;2023-11-19T07:12:23;0.60;;;0.40;;
47960;SDS011;33721;48.852;9.936;2023-11-19T07:14:51;1.58;;;0.75;;
47960;SDS011;33721;48.852;9.936;2023-11-19T07:17:18;3.33;;;0.63;;
47960;SDS011;33721;48.852;9.936;2023-11-19T07:19:45;0.90;;;0.50;;
47960;SDS011;33721;48.852;9.936;2023-11-19T07:22:11;0.77;;;0.57;;
47960;SDS011;33721;48.852;9.936;2023-11-19T07:24:38;0.88;;;0.50;;
47960;SDS011;33721;48.852;9.936;2023-11-19T07:27:05;1.27;;;0.50;;
47960;SDS011;33721;48.852;9.936;2023-11-19T07:29:33;0.88;;;0.50;;
47960;SDS011;33721;48.852;9.936;2023-11-19T07:31:59;0.82;;;0.50;;
47960;SDS011;33721;48.852;9.936;2023-11-19T07:34:27;1.45;;;0.50;;
47960;SDS011;33721;48.852;9.936;2023-11-19T07:36:54;0.70;;;0.40;;
47960;SDS011;33721;48.852;9.936;2023-11-19T07:39:22;0.57;;;0.30;;
47960;SDS011;33721;48.852;9.936;2023-11-19T07:41:48;1.00;;;0.50;;
47960;SDS011;33721;48.852;9.936;2023-11-19T07:44:14;0.70;;;0.50;;
47960;SDS011;33721;48.852;9.936;2023-11-19T07:46:39;1.02;;;0.47;;
47960;SDS011;33721;48.852;9.936;2023-11-19T07:49:07;0.73;;;0.47;;
47960;SDS011;33721;48.852;9.936;2023-11-19T07:51:32;1.05;;;0.57;;
47960;SDS011;33721;48.852;9.936;2023-11-19T07:53:58;1.00;;;0.50;;
47960;SDS011;33721;48.852;9.936;2023-11-19T07:56:24;3.70;;;0.63;;
47960;SDS011;33721;48.852;9.936;2023-11-19T07:58:49;0.95;;;0.50;;
47960;SDS011;33721;48.852;9.936;2023-11-19T08:01:15;1.23;;;0.65;;
47960;SDS011;33721;48.852;9.936;2023-11-19T08:03:41;1.27;;;0.60;;
47960;SDS011;33721;48.852;9.936;2023-11-19T08:06:06;3.03;;;0.60;;
47960;SDS011;33721;48.852;9.936;2023-11-19T08:08:32;1.00;;;0.70;;
47960;SDS011;33721;48.852;9.936;2023-11-19T08:10:59;4.28;;;0.70;;
47960;SDS011;33721;48.852;9.936;2023-11-19T08:13:25;0.95;;;0.50;;
47960;SDS011;33721;48.852;9.936;2023-11-19T08:15:51;1.05;;;0.70;;
47960;SDS011;33721;48.852;9.936;2023-11-19T08:18:16;4.35;;;0.73;;
47960;SDS011;33721;48.852;9.936;2023-11-19T08:20:43;1.20;;;0.68;;
47960;SDS011;33721;48.852;9.936;2023-11-19T08:23:09;1.48;;;0.63;;
47960;SDS011;33721;48.852;9.936;2023-11-19T08:25:35;2.40;;;0.63;;
47960;SDS011;33721;48.852;9.936;2023-11-19T08:28:01;1.98;;;0.65;;
47960;SDS011;33721;48.852;9.936;2023-11-19T08:30:28;1.13;;;0.50;;
47960;SDS011;33721;48.852;9.936;2023-11-19T08:32:54;0.98;;;0.50;;
47960;SDS011;33721;48.852;9.936;2023-11-19T08:35:20;0.98;;;0.50;;
47960;SDS011;33721;48.852;9.936;2023-11-19T08:37:46;1.08;;;0.55;;
47960;SDS011;33721;48.852;9.936;2023-11-19T08:40:11;1.42;;;0.45;;
47960;SDS011;33721;48.852;9.936;2023-11-19T08:42:40;1.02;;;0.50;;
47960;SDS011;33721;48.852;9.936;2023-11-19T08:45:06;1.95;;;0.50;;
47960;SDS011;33721;48.852;9.936;2023-11-19T08:47:35;0.85;;;0.40;;
47960;SDS011;33721;48.852;9.936;2023-11-19T08:50:01;1.40;;;0.50;;
47960;SDS011;33721;48.852;9.936;2023-11-19T08:52:26;2.38;;;0.50;;
47960;SDS011;33721;48.852;9.936;2023-11-19T08:54:52;0.52;;;0.30;;
47960;SDS011;33721;48.852;9.936;2023-11-19T08:57:18;1.55;;;0.60;;
47960;SDS011;33721;48.852;9.936;2023-11-19T08:59:44;2.13;;;0.68;;
47960;SDS011;33721;48.852;9.936;2023-11-19T09:02:10;0.98;;;0.35;;
47960;SDS011;33721;48.852;9.936;2023-11-19T09:04:36;0.77;;;0.50;;
47960;SDS011;33721;48.852;9.936;2023-11-19T09:07:02;1.35;;;0.50;;
47960;SDS011;33721;48.852;9.936;2023-11-19T09:09:28;1.83;;;0.50;;
47960;SDS011;33721;48.852;9.936;2023-11-19T09:11:55;2.92;;;0.40;;
47960;SDS011;33721;48.852;9.936;2023-11-19T09:14:20;1.48;;;0.52;;
47960;SDS011;33721;48.852;9.936;2023-11-19T09:16:50;2.58;;;0.60;;
47960;SDS011;33721;48.852;9.936;2023-11-19T09:19:16;1.20;;;0.60;;
47960;SDS011;33721;48.852;9.936;2023-11-19T09:21:42;1.10;;;0.70;;
47960;SDS011;33721;48.852;9.936;2023-11-19T09:24:09;2.17;;;1.02;;
47960;SDS011;33721;48.852;9.936;2023-11-19T09:26:34;3.20;;;0.65;;
47960;SDS011;33721;48.852;9.936;2023-11-19T09:29:01;1.73;;;0.75;;
47960;SDS011;33721;48.852;9.936;2023-11-19T09:31:27;1.13;;;0.60;;
47960;SDS011;33721;48.852;9.936;2023-11-19T09:33:52;1.20;;;0.50;;
47960;SDS011;33721;48.852;9.936;2023-11-19T09:36:19;1.05;;;0.43;;
47960;SDS011;33721;48.852;9.936;2023-11-19T09:38:45;2.10;;;0.50;;
47960;SDS011;33721;48.852;9.936;2023-11-19T09:41:11;2.55;;;0.50;;
47960;SDS011;33721;48.852;9.936;2023-11-19T09:43:41;2.30;;;0.60;;
47960;SDS011;33721;48.852;9.936;2023-11-19T09:46:10;2.30;;;0.60;;
47960;SDS011;33721;48.852;9.936;2023-11-19T09:48:40;1.15;;;0.47;;
47960;SDS011;33721;48.852;9.936;2023-11-19T09:51:07;0.85;;;0.50;;
47960;SDS011;33721;48.852;9.936;2023-11-19T09:53:34;0.77;;;0.50;;
47960;SDS011;33721;48.852;9.936;2023-11-19T09:56:02;0.90;;;0.50;;
47960;SDS011;33721;48.852;9.936;2023-11-19T09:58:29;1.45;;;0.57;;
47960;SDS011;33721;48.852;9.936;2023-11-19T10:00:58;4.05;;;0.60;;
47960;SDS011;33721;48.852;9.936;2023-11-19T10:03:25;0.90;;;0.50;;
47960;SDS011;33721;48.852;9.936;2023-11-19T10:05:54;1.63;;;0.60;;
47960;SDS011;33721;48.852;9.936;2023-11-19T10:08:21;0.80;;;0.45;;
47960;SDS011;33721;48.852;9.936;2023-11-19T10:10:47;2.58;;;0.57;;
47960;SDS011;33721;48.852;9.936;2023-11-19T10:13:13;2.10;;;0.47;;
47960;SDS011;33721;48.852;9.936;2023-11-19T10:15:39;0.88;;;0.40;;
47960;SDS011;33721;48.852;9.936;2023-11-19T10:18:05;1.42;;;0.57;;
47960;SDS011;33721;48.852;9.936;2023-11-19T10:20:37;2.45;;;0.60;;
47960;SDS011;33721;48.852;9.936;2023-11-19T10:23:06;1.15;;;0.55;;
47960;SDS011;33721;48.852;9.936;2023-11-19T10:25:32;2.55;;;0.50;;
47960;SDS011;33721;48.852;9.936;2023-11-19T10:27:59;1.85;;;0.60;;
47960;SDS011;33721;48.852;9.936;2023-11-19T10:30:26;1.00;;;0.50;;
47960;SDS011;33721;48.852;9.936;2023-11-19T10:35:36;1.80;;;0.60;;
47960;SDS011;33721;48.852;9.936;2023-11-19T10:38:18;1.67;;;0.50;;
47960;SDS011;33721;48.852;9.936;2023-11-19T10:40:44;2.20;;;0.60;;
47960;SDS011;33721;48.852;9.936;2023-11-19T10:43:10;1.25;;;0.55;;
47960;SDS011;33721;48.852;9.936;2023-11-19T10:45:36;2.08;;;0.60;;
47960;SDS011;33721;48.852;9.936;2023-11-19T10:48:03;2.03;;;0.60;;
47960;SDS011;33721;48.852;9.936;2023-11-19T10:50:33;0.50;;;0.30;;
47960;SDS011;33721;48.852;9.936;2023-11-19T10:52:59;1.10;;;0.50;;
47960;SDS011;33721;48.852;9.936;2023-11-19T10:55:30;2.25;;;0.63;;
47960;SDS011;33721;48.852;9.936;2023-11-19T10:57:58;2.00;;;0.57;;
47960;SDS011;33721;48.852;9.936;2023-11-19T11:00:25;2.92;;;0.40;;
47960;SDS011;33721;48.852;9.936;2023-11-19T11:02:55;1.10;;;0.47;;
47960;SDS011;33721;48.852;9.936;2023-11-19T11:05:25;1.23;;;0.40;;
47960;SDS011;33721;48.852;9.936;2023-11-19T11:07:52;1.00;;;0.45;;
47960;SDS011;33721;48.852;9.936;2023-11-19T11:10:20;1.33;;;0.50;;
47960;SDS011;33721;48.852;9.936;2023-11-19T11:12:51;1.98;;;0.45;;
47960;SDS011;33721;48.852;9.936;2023-11-19T11:15:22;2.15;;;0.50;;
47960;SDS011;33721;48.852;9.936;2023-11-19T11:17:49;0.93;;;0.40;;
47960;SDS011;33721;48.852;9.936;2023-11-19T11:20:18;0.73;;;0.40;;
47960;SDS011;33721;48.852;9.936;2023-11-19T11:22:48;2.67;;;0.30;;
47960;SDS011;33721;48.852;9.936;2023-11-19T11:39:57;0.52;;;0.40;;
47960;SDS011;33721;48.852;9.936;2023-11-19T11:50:08;1.70;;;0.50;;
47960;SDS011;33721;48.852;9.936;2023-11-19T11:55:26;0.80;;;0.50;;
47960;SDS011;33721;48.852;9.936;2023-11-19T11:57:52;1.13;;;0.47;;
47960;SDS011;33721;48.852;9.936;2023-11-19T12:00:22;6.10;;;0.60;;
47960;SDS011;33721;48.852;9.936;2023-11-19T12:02:52;1.92;;;0.57;;
47960;SDS011;33721;48.852;9.936;2023-11-19T12:05:25;3.28;;;0.50;;
47960;SDS011;33721;48.852;9.936;2023-11-19T12:08:00;1.13;;;0.47;;
47960;SDS011;33721;48.852;9.936;2023-11-19T12:11:09;1.63;;;0.60;;
47960;SDS011;33721;48.852;9.936;2023-11-19T12:13:19;3.17;;;0.52;;
47960;SDS011;33721;48.852;9.936;2023-11-19T12:18:23;1.85;;;0.80;;
47960;SDS011;33721;48.852;9.936;2023-11-19T12:20:51;3.03;;;0.60;;
47960;SDS011;33721;48.852;9.936;2023-11-19T12:23:16;1.15;;;0.63;;
47960;SDS011;33721;48.852;9.936;2023-11-19T12:25:42;6.07;;;0.57;;
47960;SDS011;33721;48.852;9.936;2023-11-19T12:28:13;4.38;;;0.60;;
47960;SDS011;33721;48.852;9.936;2023-11-19T12:30:42;2.92;;;0.40;;
47960;SDS011;33721;48.852;9.936;2023-11-19T12:33:08;1.25;;;0.60;;
47960;SDS011;33721;48.852;9.936;2023-11-19T12:35:40;3.17;;;0.70;;
47960;SDS011;33721;48.852;9.936;2023-11-19T12:38:07;5.20;;;0.65;;
47960;SDS011;33721;48.852;9.936;2023-11-19T12:40:33;2.45;;;0.57;;
47960;SDS011;33721;48.852;9.936;2023-11-19T12:42:59;1.98;;;0.60;;
47960;SDS011;33721;48.852;9.936;2023-11-19T12:45:33;3.08;;;0.57;;
47960;SDS011;33721;48.852;9.936;2023-11-19T12:48:07;1.88;;;0.57;;
47960;SDS011;33721;48.852;9.936;2023-11-19T12:50:53;3.50;;;0.60;;
47960;SDS011;33721;48.852;9.936;2023-11-19T12:53:19;2.55;;;0.43;;
47960;SDS011;33721;48.852;9.936;2023-11-19T12:55:46;2.65;;;0.60;;
47960;SDS011;33721;48.852;9.936;2023-11-19T12:58:28;2.53;;;0.68;;
47960;SDS011;33721;48.852;9.936;2023-11-19T13:01:00;3.10;;;1.25;;
47960;SDS011;33721;48.852;9.936;2023-11-19T13:03:35;1.75;;;0.57;;
47960;SDS011;33721;48.852;9.936;2023-11-19T13:08:36;1.45;;;0.80;;
47960;SDS011;33721;48.852;9.936;2023-11-19T13:11:05;4.47;;;0.70;;
47960;SDS011;33721;48.852;9.936;2023-11-19T13:13:33;1.83;;;0.90;;
47960;SDS011;33721;48.852;9.936;2023-11-19T13:16:18;3.33;;;0.95;;
47960;SDS011;33721;48.852;9.936;2023-11-19T13:18:44;2.40;;;0.70;;
47960;SDS011;33721;48.852;9.936;2023-11-19T13:21:09;4.10;;;0.50;;
47960;SDS011;33721;48.852;9.936;2023-11-19T13:23:35;1.20;;;0.60;;
47960;SDS011;33721;48.852;9.936;2023-11-19T13:26:01;5.65;;;0.65;;
47960;SDS011;33721;48.852;9.936;2023-11-19T13:28:26;2.13;;;0.45;;
47960;SDS011;33721;48.852;9.936;2023-11-19T13:30:52;2.03;;;0.60;;
47960;SDS011;33721;48.852;9.936;2023-11-19T13:33:18;1.67;;;0.73;;
47960;SDS011;33721;48.852;9.936;2023-11-19T13:35:44;1.48;;;0.40;;
47960;SDS011;33721;48.852;9.936;2023-11-19T13:38:09;2.47;;;0.70;;
47960;SDS011;33721;48.852;9.936;2023-11-19T13:40:35;1.92;;;0.68;;
47960;SDS011;33721;48.852;9.936;2023-11-19T13:43:01;4.97;;;0.82;;
47960;SDS011;33721;48.852;9.936;2023-11-19T13:45:26;2.35;;;0.88;;
47960;SDS011;33721;48.852;9.936;2023-11-19T13:47:52;4.18;;;1.00;;
47960;SDS011;33721;48.852;9.936;2023-11-19T13:50:18;1.65;;;0.65;;
47960;SDS011;33721;48.852;9.936;2023-11-19T13:52:44;3.13;;;0.95;;
47960;SDS011;33721;48.852;9.936;2023-11-19T13:55:12;2.80;;;0.85;;
47960;SDS011;33721;48.852;9.936;2023-11-19T13:57:38;7.07;;;0.90;;
47960;SDS011;33721;48.852;9.936;2023-11-19T14:00:06;3.10;;;0.57;;
47960;SDS011;33721;48.852;9.936;2023-11-19T14:02:43;3.05;;;0.70;;
47960;SDS011;33721;48.852;9.936;2023-11-19T14:05:10;2.35;;;0.82;;
47960;SDS011;33721;48.852;9.936;2023-11-19T14:07:36;1.17;;;0.63;;
47960;SDS011;33721;48.852;9.936;2023-11-19T14:10:02;2.72;;;0.77;;
47960;SDS011;33721;48.852;9.936;2023-11-19T14:12:30;1.40;;;0.68;;
47960;SDS011;33721;48.852;9.936;2023-11-19T14:14:55;1.23;;;0.50;;
47960;SDS011;33721;48.852;9.936;2023-11-19T14:17:21;1.25;;;0.60;;
47960;SDS011;33721;48.852;9.936;2023-11-19T14:19:47;6.63;;;0.90;;
47960;SDS011;33721;48.852;9.936;2023-11-19T14:22:12;3.30;;;0.60;;
47960;SDS011;33721;48.852;9.936;2023-11-19T14:24:38;1.77;;;0.30;;
47960;SDS011;33721;48.852;9.936;2023-11-19T14:27:06;4.90;;;0.52;;
47960;SDS011;33721;48.852;9.936;2023-11-19T14:29:32;5.70;;;0.60;;
47960;SDS011;33721;48.852;9.936;2023-11-19T14:31:59;0.80;;;0.30;;
47960;SDS011;33721;48.852;9.936;2023-11-19T14:34:25;4.15;;;0.30;;
47960;SDS011;33721;48.852;9.936;2023-11-19T14:36:51;2.28;;;0.47;;
47960;SDS011;33721;48.852;9.936;2023-11-19T14:39:18;2.35;;;0.40;;
47960;SDS011;33721;48.852;9.936;2023-11-19T14:41:44;1.05;;;0.43;;
47960;SDS011;33721;48.852;9.936;2023-11-19T14:44:10;3.67;;;0.50;;
47960;SDS011;33721;48.852;9.936;2023-11-19T14:46:36;2.05;;;0.40;;
47960;SDS011;33721;48.852;9.936;2023-11-19T14:49:01;1.15;;;0.32;;
47960;SDS011;33721;48.852;9.936;2023-11-19T14:51:28;2.25;;;0.50;;
47960;SDS011;33721;48.852;9.936;2023-11-19T14:53:54;2.78;;;0.50;;
47960;SDS011;33721;48.852;9.936;2023-11-19T14:56:20;1.20;;;0.40;;
47960;SDS011;33721;48.852;9.936;2023-11-19T14:58:46;1.75;;;0.47;;
47960;SDS011;33721;48.852;9.936;2023-11-19T15:01:12;1.08;;;0.40;;
47960;SDS011;33721;48.852;9.936;2023-11-19T15:03:39;1.58;;;0.55;;
47960;SDS011;33721;48.852;9.936;2023-11-19T15:06:05;7.32;;;0.50;;
47960;SDS011;33721;48.852;9.936;2023-11-19T15:08:32;1.38;;;0.30;;
47960;SDS011;33721;48.852;9.936;2023-11-19T15:10:58;2.63;;;0.55;;
47960;SDS011;33721;48.852;9.936;2023-11-19T15:13:24;4.68;;;0.55;;
47960;SDS011;33721;48.852;9.936;2023-11-19T15:15:50;1.90;;;0.43;;
47960;SDS011;33721;48.852;9.936;2023-11-19T15:18:17;2.40;;;0.30;;
47960;SDS011;33721;48.852;9.936;2023-11-19T15:20:44;4.07;;;0.50;;